sensor_id;sensor_type;location;lat;lon;timestamp;P1;durP1;ratioP1;P2;durP2;ratioP2
35693;SDS011;21812;55.536;37.664;2022-10-17T00:01:28;4.32;;;2.65;;
35693;SDS011;21812;55.536;37.664;2022-10-17T00:03:53;5.90;;;3.03;;
35693;SDS011;21812;55.536;37.664;2022-10-17T00:06:19;4.63;;;3.40;;
35693;SDS011;21812;55.536;37.664;2022-10-17T00:08:45;7.82;;;4.63;;
35693;SDS011;21812;55.536;37.664;2022-10-17T00:11:21;4.25;;;2.72;;
35693;SDS011;21812;55.536;37.664;2022-10-17T00:13:48;5.00;;;2.97;;
35693;SDS011;21812;55.536;37.664;2022-10-17T00:16:22;6.07;;;2.45;;
35693;SDS011;21812;55.536;37.664;2022-10-17T00:18:52;7.28;;;3.28;;
35693;SDS011;21812;55.536;37.664;2022-10-17T00:21:19;4.45;;;2.72;;
35693;SDS011;21812;55.536;37.664;2022-10-17T00:23:45;5.03;;;2.97;;
35693;SDS011;21812;55.536;37.664;2022-10-17T00:26:12;3.22;;;2.67;;
35693;SDS011;21812;55.536;37.664;2022-10-17T00:28:38;6.80;;;2.63;;
35693;SDS011;21812;55.536;37.664;2022-10-17T00:31:04;2.80;;;1.83;;
35693;SDS011;21812;55.536;37.664;2022-10-17T00:33:31;7.00;;;2.97;;
35693;SDS011;21812;55.536;37.664;2022-10-17T00:38:29;4.20;;;2.47;;
35693;SDS011;21812;55.536;37.664;2022-10-17T00:40:54;5.25;;;2.83;;
35693;SDS011;21812;55.536;37.664;2022-10-17T00:43:21;4.22;;;2.25;;
35693;SDS011;21812;55.536;37.664;2022-10-17T00:45:47;2.92;;;1.77;;
35693;SDS011;21812;55.536;37.664;2022-10-17T00:48:12;3.10;;;1.80;;
35693;SDS011;21812;55.536;37.664;2022-10-17T00:50:40;7.43;;;3.33;;
35693;SDS011;21812;55.536;37.664;2022-10-17T00:53:08;4.55;;;2.20;;
35693;SDS011;21812;55.536;37.664;2022-10-17T00:55:38;4.32;;;2.40;;
35693;SDS011;21812;55.536;37.664;2022-10-17T00:58:09;4.65;;;2.15;;
35693;SDS011;21812;55.536;37.664;2022-10-17T01:00:35;3.72;;;2.47;;
35693;SDS011;21812;55.536;37.664;2022-10-17T01:03:02;4.20;;;3.03;;
35693;SDS011;21812;55.536;37.664;2022-10-17T01:05:29;3.17;;;1.65;;
35693;SDS011;21812;55.536;37.664;2022-10-17T01:07:55;5.03;;;2.17;;
35693;SDS011;21812;55.536;37.664;2022-10-17T01:10:21;7.32;;;2.50;;
35693;SDS011;21812;55.536;37.664;2022-10-17T01:15:46;3.67;;;1.98;;
35693;SDS011;21812;55.536;37.664;2022-10-17T01:18:27;3.33;;;1.83;;
35693;SDS011;21812;55.536;37.664;2022-10-17T01:21:09;5.72;;;3.05;;
35693;SDS011;21812;55.536;37.664;2022-10-17T01:31:47;4.63;;;2.05;;
35693;SDS011;21812;55.536;37.664;2022-10-17T01:34:25;2.33;;;1.98;;
35693;SDS011;21812;55.536;37.664;2022-10-17T01:39:58;3.70;;;2.22;;
35693;SDS011;21812;55.536;37.664;2022-10-17T01:42:36;3.45;;;2.22;;
35693;SDS011;21812;55.536;37.664;2022-10-17T01:45:16;6.30;;;2.92;;
35693;SDS011;21812;55.536;37.664;2022-10-17T01:48:13;4.85;;;2.90;;
35693;SDS011;21812;55.536;37.664;2022-10-17T01:50:47;6.90;;;3.03;;
35693;SDS011;21812;55.536;37.664;2022-10-17T01:53:22;4.03;;;2.30;;
35693;SDS011;21812;55.536;37.664;2022-10-17T01:55:53;3.58;;;2.42;;
35693;SDS011;21812;55.536;37.664;2022-10-17T01:58:26;3.90;;;2.30;;
35693;SDS011;21812;55.536;37.664;2022-10-17T02:00:55;4.47;;;3.10;;
35693;SDS011;21812;55.536;37.664;2022-10-17T02:03:29;6.13;;;3.35;;
35693;SDS011;21812;55.536;37.664;2022-10-17T02:05:56;3.75;;;2.15;;
35693;SDS011;21812;55.536;37.664;2022-10-17T02:08:26;4.38;;;1.92;;
35693;SDS011;21812;55.536;37.664;2022-10-17T02:10:56;4.85;;;2.83;;
35693;SDS011;21812;55.536;37.664;2022-10-17T02:29:44;4.40;;;2.75;;
35693;SDS011;21812;55.536;37.664;2022-10-17T02:35:05;7.80;;;3.03;;
35693;SDS011;21812;55.536;37.664;2022-10-17T02:37:35;4.30;;;2.15;;
35693;SDS011;21812;55.536;37.664;2022-10-17T02:40:02;3.40;;;2.00;;
35693;SDS011;21812;55.536;37.664;2022-10-17T02:42:29;3.55;;;1.73;;
35693;SDS011;21812;55.536;37.664;2022-10-17T02:45:00;3.45;;;1.80;;
35693;SDS011;21812;55.536;37.664;2022-10-17T02:47:34;5.65;;;3.10;;
35693;SDS011;21812;55.536;37.664;2022-10-17T02:50:05;8.90;;;3.05;;
35693;SDS011;21812;55.536;37.664;2022-10-17T02:55:33;4.30;;;2.97;;
35693;SDS011;21812;55.536;37.664;2022-10-17T02:58:07;3.85;;;2.55;;
35693;SDS011;21812;55.536;37.664;2022-10-17T03:00:38;4.45;;;2.33;;
35693;SDS011;21812;55.536;37.664;2022-10-17T03:03:25;4.72;;;2.75;;
35693;SDS011;21812;55.536;37.664;2022-10-17T03:05:52;5.97;;;3.20;;
35693;SDS011;21812;55.536;37.664;2022-10-17T03:08:24;4.35;;;2.88;;
35693;SDS011;21812;55.536;37.664;2022-10-17T03:10:49;4.15;;;2.65;;
35693;SDS011;21812;55.536;37.664;2022-10-17T03:13:15;5.15;;;2.33;;
35693;SDS011;21812;55.536;37.664;2022-10-17T03:15:41;4.95;;;3.10;;
35693;SDS011;21812;55.536;37.664;2022-10-17T03:18:07;5.40;;;3.13;;
35693;SDS011;21812;55.536;37.664;2022-10-17T03:20:33;8.05;;;3.20;;
35693;SDS011;21812;55.536;37.664;2022-10-17T03:22:59;5.72;;;3.10;;
35693;SDS011;21812;55.536;37.664;2022-10-17T03:25:28;8.50;;;2.80;;
35693;SDS011;21812;55.536;37.664;2022-10-17T03:27:53;4.07;;;2.40;;
35693;SDS011;21812;55.536;37.664;2022-10-17T03:30:22;3.67;;;2.15;;
35693;SDS011;21812;55.536;37.664;2022-10-17T03:32:49;4.60;;;3.15;;
35693;SDS011;21812;55.536;37.664;2022-10-17T03:35:15;8.07;;;3.13;;
35693;SDS011;21812;55.536;37.664;2022-10-17T03:37:45;6.10;;;3.95;;
35693;SDS011;21812;55.536;37.664;2022-10-17T03:40:10;10.90;;;3.45;;
35693;SDS011;21812;55.536;37.664;2022-10-17T03:42:37;6.90;;;2.97;;
35693;SDS011;21812;55.536;37.664;2022-10-17T03:45:03;5.40;;;2.70;;
35693;SDS011;21812;55.536;37.664;2022-10-17T03:47:30;5.80;;;3.25;;
35693;SDS011;21812;55.536;37.664;2022-10-17T03:49:55;7.60;;;2.90;;
35693;SDS011;21812;55.536;37.664;2022-10-17T03:52:21;5.88;;;2.70;;
35693;SDS011;21812;55.536;37.664;2022-10-17T03:54:48;5.90;;;2.85;;
35693;SDS011;21812;55.536;37.664;2022-10-17T03:57:15;6.93;;;3.35;;
35693;SDS011;21812;55.536;37.664;2022-10-17T03:59:42;4.32;;;2.97;;
35693;SDS011;21812;55.536;37.664;2022-10-17T04:02:13;5.03;;;3.00;;
35693;SDS011;21812;55.536;37.664;2022-10-17T04:04:38;4.13;;;3.45;;
35693;SDS011;21812;55.536;37.664;2022-10-17T04:07:05;4.55;;;3.10;;
35693;SDS011;21812;55.536;37.664;2022-10-17T04:09:37;11.23;;;3.83;;
35693;SDS011;21812;55.536;37.664;2022-10-17T04:12:10;5.43;;;3.40;;
35693;SDS011;21812;55.536;37.664;2022-10-17T04:14:36;8.35;;;3.45;;
35693;SDS011;21812;55.536;37.664;2022-10-17T04:17:02;14.68;;;3.95;;
35693;SDS011;21812;55.536;37.664;2022-10-17T04:19:29;10.88;;;3.83;;
35693;SDS011;21812;55.536;37.664;2022-10-17T04:21:55;19.58;;;6.20;;
35693;SDS011;21812;55.536;37.664;2022-10-17T04:24:25;23.67;;;8.10;;
35693;SDS011;21812;55.536;37.664;2022-10-17T04:27:02;17.38;;;6.03;;
35693;SDS011;21812;55.536;37.664;2022-10-17T04:29:30;4.93;;;3.40;;
35693;SDS011;21812;55.536;37.664;2022-10-17T04:32:12;6.10;;;3.60;;
35693;SDS011;21812;55.536;37.664;2022-10-17T04:37:16;5.13;;;3.30;;
35693;SDS011;21812;55.536;37.664;2022-10-17T04:39:43;4.65;;;3.47;;
35693;SDS011;21812;55.536;37.664;2022-10-17T04:42:09;6.13;;;3.55;;
35693;SDS011;21812;55.536;37.664;2022-10-17T04:44:35;6.60;;;2.88;;
35693;SDS011;21812;55.536;37.664;2022-10-17T04:47:02;6.65;;;3.30;;
35693;SDS011;21812;55.536;37.664;2022-10-17T04:49:27;8.77;;;3.30;;
35693;SDS011;21812;55.536;37.664;2022-10-17T04:51:58;8.43;;;2.90;;
35693;SDS011;21812;55.536;37.664;2022-10-17T04:54:36;8.05;;;3.00;;
35693;SDS011;21812;55.536;37.664;2022-10-17T04:57:06;11.05;;;3.90;;
35693;SDS011;21812;55.536;37.664;2022-10-17T04:59:32;6.78;;;3.60;;
35693;SDS011;21812;55.536;37.664;2022-10-17T05:02:14;4.57;;;2.75;;
35693;SDS011;21812;55.536;37.664;2022-10-17T05:04:40;5.20;;;2.92;;
35693;SDS011;21812;55.536;37.664;2022-10-17T05:07:07;8.77;;;4.18;;
35693;SDS011;21812;55.536;37.664;2022-10-17T05:09:45;9.98;;;2.55;;
35693;SDS011;21812;55.536;37.664;2022-10-17T05:12:11;6.35;;;3.28;;
35693;SDS011;21812;55.536;37.664;2022-10-17T05:14:40;5.55;;;3.03;;
35693;SDS011;21812;55.536;37.664;2022-10-17T05:17:06;5.75;;;2.75;;
35693;SDS011;21812;55.536;37.664;2022-10-17T05:19:33;7.07;;;3.30;;
35693;SDS011;21812;55.536;37.664;2022-10-17T05:21:59;6.30;;;2.65;;
35693;SDS011;21812;55.536;37.664;2022-10-17T05:24:25;7.80;;;3.20;;
35693;SDS011;21812;55.536;37.664;2022-10-17T05:26:50;5.25;;;3.40;;
35693;SDS011;21812;55.536;37.664;2022-10-17T05:29:16;7.32;;;3.35;;
35693;SDS011;21812;55.536;37.664;2022-10-17T05:31:47;7.00;;;3.33;;
35693;SDS011;21812;55.536;37.664;2022-10-17T05:34:13;8.68;;;3.80;;
35693;SDS011;21812;55.536;37.664;2022-10-17T05:36:40;5.00;;;3.35;;
35693;SDS011;21812;55.536;37.664;2022-10-17T05:39:06;5.80;;;2.90;;
35693;SDS011;21812;55.536;37.664;2022-10-17T05:41:33;5.45;;;3.15;;
35693;SDS011;21812;55.536;37.664;2022-10-17T05:44:00;5.10;;;2.83;;
35693;SDS011;21812;55.536;37.664;2022-10-17T05:46:39;5.00;;;3.20;;
35693;SDS011;21812;55.536;37.664;2022-10-17T05:49:05;4.70;;;3.45;;
35693;SDS011;21812;55.536;37.664;2022-10-17T05:51:32;4.28;;;2.33;;
35693;SDS011;21812;55.536;37.664;2022-10-17T05:54:04;4.32;;;2.95;;
35693;SDS011;21812;55.536;37.664;2022-10-17T05:56:30;5.38;;;3.10;;
35693;SDS011;21812;55.536;37.664;2022-10-17T05:58:56;8.45;;;4.03;;
35693;SDS011;21812;55.536;37.664;2022-10-17T06:01:40;6.22;;;3.17;;
35693;SDS011;21812;55.536;37.664;2022-10-17T06:04:09;6.63;;;4.75;;
35693;SDS011;21812;55.536;37.664;2022-10-17T06:06:36;6.00;;;2.90;;
35693;SDS011;21812;55.536;37.664;2022-10-17T06:09:02;6.03;;;3.65;;
35693;SDS011;21812;55.536;37.664;2022-10-17T06:11:32;6.55;;;3.65;;
35693;SDS011;21812;55.536;37.664;2022-10-17T06:13:58;5.63;;;3.58;;
35693;SDS011;21812;55.536;37.664;2022-10-17T06:16:27;4.68;;;2.80;;
35693;SDS011;21812;55.536;37.664;2022-10-17T06:18:53;7.25;;;3.30;;
35693;SDS011;21812;55.536;37.664;2022-10-17T06:21:20;6.35;;;3.33;;
35693;SDS011;21812;55.536;37.664;2022-10-17T06:23:50;11.63;;;5.25;;
35693;SDS011;21812;55.536;37.664;2022-10-17T06:26:34;5.13;;;3.05;;
35693;SDS011;21812;55.536;37.664;2022-10-17T06:29:00;14.98;;;4.53;;
35693;SDS011;21812;55.536;37.664;2022-10-17T06:31:30;8.40;;;4.25;;
35693;SDS011;21812;55.536;37.664;2022-10-17T06:33:56;13.02;;;4.65;;
35693;SDS011;21812;55.536;37.664;2022-10-17T06:36:24;6.72;;;3.63;;
35693;SDS011;21812;55.536;37.664;2022-10-17T06:38:50;11.57;;;3.80;;
35693;SDS011;21812;55.536;37.664;2022-10-17T06:41:25;10.48;;;4.45;;
35693;SDS011;21812;55.536;37.664;2022-10-17T06:43:52;6.25;;;2.92;;
35693;SDS011;21812;55.536;37.664;2022-10-17T06:46:47;5.60;;;3.60;;
35693;SDS011;21812;55.536;37.664;2022-10-17T06:49:15;8.40;;;3.72;;
35693;SDS011;21812;55.536;37.664;2022-10-17T06:51:46;9.00;;;3.53;;
35693;SDS011;21812;55.536;37.664;2022-10-17T06:54:14;9.48;;;3.42;;
35693;SDS011;21812;55.536;37.664;2022-10-17T06:57:02;5.60;;;3.17;;
35693;SDS011;21812;55.536;37.664;2022-10-17T06:59:45;9.98;;;3.50;;
35693;SDS011;21812;55.536;37.664;2022-10-17T07:02:17;5.78;;;3.97;;
35693;SDS011;21812;55.536;37.664;2022-10-17T07:04:45;5.85;;;2.83;;
35693;SDS011;21812;55.536;37.664;2022-10-17T07:07:11;7.70;;;4.07;;
35693;SDS011;21812;55.536;37.664;2022-10-17T07:09:37;8.73;;;3.30;;
35693;SDS011;21812;55.536;37.664;2022-10-17T07:12:03;5.05;;;3.30;;
35693;SDS011;21812;55.536;37.664;2022-10-17T07:14:32;6.20;;;3.28;;
35693;SDS011;21812;55.536;37.664;2022-10-17T07:16:58;8.77;;;3.55;;
35693;SDS011;21812;55.536;37.664;2022-10-17T07:19:26;6.82;;;4.18;;
35693;SDS011;21812;55.536;37.664;2022-10-17T07:21:52;8.40;;;4.57;;
35693;SDS011;21812;55.536;37.664;2022-10-17T07:24:19;9.45;;;4.80;;
35693;SDS011;21812;55.536;37.664;2022-10-17T07:26:49;7.72;;;3.95;;
35693;SDS011;21812;55.536;37.664;2022-10-17T07:29:16;7.07;;;4.13;;
35693;SDS011;21812;55.536;37.664;2022-10-17T07:31:46;5.53;;;3.53;;
35693;SDS011;21812;55.536;37.664;2022-10-17T07:34:13;13.45;;;3.58;;
35693;SDS011;21812;55.536;37.664;2022-10-17T07:36:39;5.40;;;3.00;;
35693;SDS011;21812;55.536;37.664;2022-10-17T07:39:05;7.25;;;3.75;;
35693;SDS011;21812;55.536;37.664;2022-10-17T07:41:34;7.53;;;3.88;;
35693;SDS011;21812;55.536;37.664;2022-10-17T07:43:59;5.93;;;3.97;;
35693;SDS011;21812;55.536;37.664;2022-10-17T07:46:31;12.07;;;3.50;;
35693;SDS011;21812;55.536;37.664;2022-10-17T07:48:57;9.65;;;3.63;;
35693;SDS011;21812;55.536;37.664;2022-10-17T07:51:22;9.30;;;4.07;;
35693;SDS011;21812;55.536;37.664;2022-10-17T07:53:48;7.40;;;3.75;;
35693;SDS011;21812;55.536;37.664;2022-10-17T07:56:14;4.80;;;3.20;;
35693;SDS011;21812;55.536;37.664;2022-10-17T07:58:40;9.88;;;3.42;;
35693;SDS011;21812;55.536;37.664;2022-10-17T08:01:07;10.20;;;3.70;;
35693;SDS011;21812;55.536;37.664;2022-10-17T08:03:35;7.60;;;3.72;;
35693;SDS011;21812;55.536;37.664;2022-10-17T08:06:01;6.68;;;4.43;;
35693;SDS011;21812;55.536;37.664;2022-10-17T08:08:28;6.05;;;3.40;;
35693;SDS011;21812;55.536;37.664;2022-10-17T08:10:54;14.85;;;3.97;;
35693;SDS011;21812;55.536;37.664;2022-10-17T08:13:25;7.60;;;3.97;;
35693;SDS011;21812;55.536;37.664;2022-10-17T08:15:50;7.43;;;3.42;;
35693;SDS011;21812;55.536;37.664;2022-10-17T08:18:16;8.93;;;4.18;;
35693;SDS011;21812;55.536;37.664;2022-10-17T08:20:42;7.43;;;4.45;;
35693;SDS011;21812;55.536;37.664;2022-10-17T08:23:08;9.98;;;4.35;;
35693;SDS011;21812;55.536;37.664;2022-10-17T08:25:34;8.70;;;4.05;;
35693;SDS011;21812;55.536;37.664;2022-10-17T08:28:02;7.90;;;3.78;;
35693;SDS011;21812;55.536;37.664;2022-10-17T08:30:28;8.68;;;4.25;;
35693;SDS011;21812;55.536;37.664;2022-10-17T08:32:55;11.10;;;4.78;;
35693;SDS011;21812;55.536;37.664;2022-10-17T08:35:20;7.45;;;3.70;;
35693;SDS011;21812;55.536;37.664;2022-10-17T08:37:46;5.88;;;3.05;;
35693;SDS011;21812;55.536;37.664;2022-10-17T08:40:20;8.13;;;3.90;;
35693;SDS011;21812;55.536;37.664;2022-10-17T08:43:25;9.10;;;4.05;;
35693;SDS011;21812;55.536;37.664;2022-10-17T08:45:57;31.38;;;5.22;;
35693;SDS011;21812;55.536;37.664;2022-10-17T08:48:28;10.55;;;4.05;;
35693;SDS011;21812;55.536;37.664;2022-10-17T08:51:02;9.88;;;3.92;;
35693;SDS011;21812;55.536;37.664;2022-10-17T08:53:39;6.35;;;3.55;;
35693;SDS011;21812;55.536;37.664;2022-10-17T08:56:15;10.98;;;4.18;;
35693;SDS011;21812;55.536;37.664;2022-10-17T08:58:43;11.57;;;4.25;;
35693;SDS011;21812;55.536;37.664;2022-10-17T09:01:30;9.13;;;4.07;;
35693;SDS011;21812;55.536;37.664;2022-10-17T09:04:20;8.43;;;3.85;;
35693;SDS011;21812;55.536;37.664;2022-10-17T09:10:06;5.65;;;3.60;;
35693;SDS011;21812;55.536;37.664;2022-10-17T09:13:26;10.00;;;4.68;;
35693;SDS011;21812;55.536;37.664;2022-10-17T09:19:01;7.60;;;4.40;;
35693;SDS011;21812;55.536;37.664;2022-10-17T09:22:19;8.95;;;4.53;;
35693;SDS011;21812;55.536;37.664;2022-10-17T09:24:37;11.48;;;4.45;;
35693;SDS011;21812;55.536;37.664;2022-10-17T09:27:31;7.55;;;5.40;;
35693;SDS011;21812;55.536;37.664;2022-10-17T09:30:24;8.52;;;4.53;;
35693;SDS011;21812;55.536;37.664;2022-10-17T09:32:53;8.60;;;4.55;;
35693;SDS011;21812;55.536;37.664;2022-10-17T09:35:19;6.68;;;4.65;;
35693;SDS011;21812;55.536;37.664;2022-10-17T09:37:46;6.38;;;4.03;;
35693;SDS011;21812;55.536;37.664;2022-10-17T09:40:25;9.40;;;4.63;;
35693;SDS011;21812;55.536;37.664;2022-10-17T09:42:55;11.45;;;5.28;;
35693;SDS011;21812;55.536;37.664;2022-10-17T09:45:22;9.07;;;5.05;;
35693;SDS011;21812;55.536;37.664;2022-10-17T09:48:00;8.88;;;4.97;;
35693;SDS011;21812;55.536;37.664;2022-10-17T09:50:48;8.13;;;5.30;;
35693;SDS011;21812;55.536;37.664;2022-10-17T09:53:17;8.25;;;4.65;;
35693;SDS011;21812;55.536;37.664;2022-10-17T09:56:10;8.55;;;5.97;;
35693;SDS011;21812;55.536;37.664;2022-10-17T10:01:21;6.88;;;5.18;;
35693;SDS011;21812;55.536;37.664;2022-10-17T10:03:48;8.27;;;4.63;;
35693;SDS011;21812;55.536;37.664;2022-10-17T10:06:34;7.93;;;4.95;;
35693;SDS011;21812;55.536;37.664;2022-10-17T10:09:00;6.63;;;5.07;;
35693;SDS011;21812;55.536;37.664;2022-10-17T10:11:43;10.82;;;5.15;;
35693;SDS011;21812;55.536;37.664;2022-10-17T10:14:21;7.18;;;5.00;;
35693;SDS011;21812;55.536;37.664;2022-10-17T10:16:57;8.77;;;5.28;;
35693;SDS011;21812;55.536;37.664;2022-10-17T10:21:59;9.60;;;6.25;;
35693;SDS011;21812;55.536;37.664;2022-10-17T10:24:27;10.60;;;5.22;;
35693;SDS011;21812;55.536;37.664;2022-10-17T10:26:56;9.90;;;5.32;;
35693;SDS011;21812;55.536;37.664;2022-10-17T10:32:11;14.18;;;4.85;;
35693;SDS011;21812;55.536;37.664;2022-10-17T10:37:19;7.88;;;4.97;;
35693;SDS011;21812;55.536;37.664;2022-10-17T10:39:57;7.25;;;5.28;;
35693;SDS011;21812;55.536;37.664;2022-10-17T10:42:37;11.48;;;5.50;;
35693;SDS011;21812;55.536;37.664;2022-10-17T10:45:14;8.10;;;5.30;;
35693;SDS011;21812;55.536;37.664;2022-10-17T10:47:48;9.38;;;4.88;;
35693;SDS011;21812;55.536;37.664;2022-10-17T10:55:36;9.13;;;5.38;;
35693;SDS011;21812;55.536;37.664;2022-10-17T11:01:02;8.82;;;4.55;;
35693;SDS011;21812;55.536;37.664;2022-10-17T11:03:33;7.22;;;4.88;;
35693;SDS011;21812;55.536;37.664;2022-10-17T11:06:11;8.68;;;5.00;;
35693;SDS011;21812;55.536;37.664;2022-10-17T11:08:42;23.73;;;6.75;;
35693;SDS011;21812;55.536;37.664;2022-10-17T11:11:17;8.65;;;5.43;;
35693;SDS011;21812;55.536;37.664;2022-10-17T11:16:36;7.40;;;4.45;;
35693;SDS011;21812;55.536;37.664;2022-10-17T11:19:12;8.63;;;5.05;;
35693;SDS011;21812;55.536;37.664;2022-10-17T11:21:44;10.23;;;5.00;;
35693;SDS011;21812;55.536;37.664;2022-10-17T11:24:21;8.32;;;5.88;;
35693;SDS011;21812;55.536;37.664;2022-10-17T11:26:51;8.80;;;5.88;;
35693;SDS011;21812;55.536;37.664;2022-10-17T11:29:21;13.63;;;6.75;;
35693;SDS011;21812;55.536;37.664;2022-10-17T11:31:52;8.63;;;4.95;;
35693;SDS011;21812;55.536;37.664;2022-10-17T11:34:25;10.13;;;6.05;;
35693;SDS011;21812;55.536;37.664;2022-10-17T11:36:55;11.77;;;5.93;;
35693;SDS011;21812;55.536;37.664;2022-10-17T11:42:05;8.63;;;5.45;;
35693;SDS011;21812;55.536;37.664;2022-10-17T11:44:36;10.55;;;6.40;;
35693;SDS011;21812;55.536;37.664;2022-10-17T11:55:24;8.68;;;6.25;;
35693;SDS011;21812;55.536;37.664;2022-10-17T12:03:47;9.32;;;6.45;;
35693;SDS011;21812;55.536;37.664;2022-10-17T12:16:57;11.63;;;7.40;;
35693;SDS011;21812;55.536;37.664;2022-10-17T12:19:24;12.65;;;8.10;;
35693;SDS011;21812;55.536;37.664;2022-10-17T12:21:56;11.23;;;6.80;;
35693;SDS011;21812;55.536;37.664;2022-10-17T12:24:56;11.38;;;6.28;;
35693;SDS011;21812;55.536;37.664;2022-10-17T12:27:35;12.07;;;6.75;;
35693;SDS011;21812;55.536;37.664;2022-10-17T12:35:39;12.37;;;7.63;;
35693;SDS011;21812;55.536;37.664;2022-10-17T12:45:49;11.18;;;7.68;;
35693;SDS011;21812;55.536;37.664;2022-10-17T12:53:24;15.75;;;8.25;;
35693;SDS011;21812;55.536;37.664;2022-10-17T12:56:05;12.18;;;8.18;;
35693;SDS011;21812;55.536;37.664;2022-10-17T12:58:32;13.05;;;7.88;;
35693;SDS011;21812;55.536;37.664;2022-10-17T13:00:59;11.35;;;6.70;;
35693;SDS011;21812;55.536;37.664;2022-10-17T13:03:26;13.52;;;6.90;;
35693;SDS011;21812;55.536;37.664;2022-10-17T13:05:56;12.20;;;8.73;;
35693;SDS011;21812;55.536;37.664;2022-10-17T13:08:26;13.43;;;7.82;;
35693;SDS011;21812;55.536;37.664;2022-10-17T13:10:56;14.48;;;7.82;;
35693;SDS011;21812;55.536;37.664;2022-10-17T13:13:22;13.57;;;7.65;;
35693;SDS011;21812;55.536;37.664;2022-10-17T13:15:59;13.65;;;8.75;;
35693;SDS011;21812;55.536;37.664;2022-10-17T13:18:25;15.18;;;7.68;;
35693;SDS011;21812;55.536;37.664;2022-10-17T13:23:40;20.77;;;10.18;;
35693;SDS011;21812;55.536;37.664;2022-10-17T13:26:10;16.63;;;8.85;;
35693;SDS011;21812;55.536;37.664;2022-10-17T13:28:44;14.13;;;8.90;;
35693;SDS011;21812;55.536;37.664;2022-10-17T13:31:27;17.10;;;8.48;;
35693;SDS011;21812;55.536;37.664;2022-10-17T13:33:56;16.95;;;8.55;;
35693;SDS011;21812;55.536;37.664;2022-10-17T13:36:23;19.98;;;9.10;;
35693;SDS011;21812;55.536;37.664;2022-10-17T13:38:49;15.07;;;8.73;;
35693;SDS011;21812;55.536;37.664;2022-10-17T13:41:15;17.17;;;9.57;;
35693;SDS011;21812;55.536;37.664;2022-10-17T13:43:47;15.70;;;10.10;;
35693;SDS011;21812;55.536;37.664;2022-10-17T13:46:16;21.35;;;10.48;;
35693;SDS011;21812;55.536;37.664;2022-10-17T13:48:58;18.83;;;10.35;;
35693;SDS011;21812;55.536;37.664;2022-10-17T13:51:32;14.90;;;8.63;;
35693;SDS011;21812;55.536;37.664;2022-10-17T13:53:58;12.55;;;8.07;;
35693;SDS011;21812;55.536;37.664;2022-10-17T13:56:24;14.45;;;8.95;;
35693;SDS011;21812;55.536;37.664;2022-10-17T13:58:52;12.95;;;8.93;;
35693;SDS011;21812;55.536;37.664;2022-10-17T14:01:22;14.73;;;8.10;;
35693;SDS011;21812;55.536;37.664;2022-10-17T14:03:49;19.42;;;9.18;;
35693;SDS011;21812;55.536;37.664;2022-10-17T14:06:16;13.65;;;8.18;;
35693;SDS011;21812;55.536;37.664;2022-10-17T14:09:01;11.27;;;8.10;;
35693;SDS011;21812;55.536;37.664;2022-10-17T14:13:59;16.92;;;8.50;;
35693;SDS011;21812;55.536;37.664;2022-10-17T14:16:32;14.88;;;8.30;;
35693;SDS011;21812;55.536;37.664;2022-10-17T14:19:12;16.05;;;8.52;;
35693;SDS011;21812;55.536;37.664;2022-10-17T14:21:47;18.05;;;6.93;;
35693;SDS011;21812;55.536;37.664;2022-10-17T14:26:46;15.93;;;8.13;;
35693;SDS011;21812;55.536;37.664;2022-10-17T14:29:19;14.35;;;7.70;;
35693;SDS011;21812;55.536;37.664;2022-10-17T14:31:45;12.27;;;7.30;;
35693;SDS011;21812;55.536;37.664;2022-10-17T14:34:15;16.35;;;8.52;;
35693;SDS011;21812;55.536;37.664;2022-10-17T14:36:46;17.45;;;8.68;;
35693;SDS011;21812;55.536;37.664;2022-10-17T14:39:19;18.75;;;11.75;;
35693;SDS011;21812;55.536;37.664;2022-10-17T14:41:47;19.05;;;9.93;;
35693;SDS011;21812;55.536;37.664;2022-10-17T14:44:28;17.42;;;9.82;;
35693;SDS011;21812;55.536;37.664;2022-10-17T14:47:00;15.73;;;8.05;;
35693;SDS011;21812;55.536;37.664;2022-10-17T14:54:37;18.52;;;9.65;;
35693;SDS011;21812;55.536;37.664;2022-10-17T14:57:16;17.42;;;10.88;;
35693;SDS011;21812;55.536;37.664;2022-10-17T14:59:44;15.65;;;9.00;;
35693;SDS011;21812;55.536;37.664;2022-10-17T15:02:10;20.00;;;9.70;;
35693;SDS011;21812;55.536;37.664;2022-10-17T15:04:36;14.65;;;8.88;;
35693;SDS011;21812;55.536;37.664;2022-10-17T15:07:01;20.50;;;9.40;;
35693;SDS011;21812;55.536;37.664;2022-10-17T15:09:27;18.08;;;9.00;;
35693;SDS011;21812;55.536;37.664;2022-10-17T15:11:59;12.27;;;8.25;;
35693;SDS011;21812;55.536;37.664;2022-10-17T15:14:28;18.63;;;8.98;;
35693;SDS011;21812;55.536;37.664;2022-10-17T15:16:54;14.30;;;9.43;;
35693;SDS011;21812;55.536;37.664;2022-10-17T15:19:19;29.58;;;12.05;;
35693;SDS011;21812;55.536;37.664;2022-10-17T15:21:45;18.40;;;8.77;;
35693;SDS011;21812;55.536;37.664;2022-10-17T15:24:10;16.02;;;8.95;;
35693;SDS011;21812;55.536;37.664;2022-10-17T15:26:36;17.95;;;9.65;;
35693;SDS011;21812;55.536;37.664;2022-10-17T15:29:02;14.93;;;9.52;;
35693;SDS011;21812;55.536;37.664;2022-10-17T15:31:28;14.43;;;8.80;;
35693;SDS011;21812;55.536;37.664;2022-10-17T15:33:57;19.10;;;10.20;;
35693;SDS011;21812;55.536;37.664;2022-10-17T15:36:24;17.80;;;9.20;;
35693;SDS011;21812;55.536;37.664;2022-10-17T15:38:52;14.65;;;8.45;;
35693;SDS011;21812;55.536;37.664;2022-10-17T15:41:20;14.07;;;8.70;;
35693;SDS011;21812;55.536;37.664;2022-10-17T15:43:47;20.05;;;10.35;;
35693;SDS011;21812;55.536;37.664;2022-10-17T15:46:14;15.85;;;9.20;;
35693;SDS011;21812;55.536;37.664;2022-10-17T15:48:43;15.93;;;10.35;;
35693;SDS011;21812;55.536;37.664;2022-10-17T15:51:09;20.95;;;10.55;;
35693;SDS011;21812;55.536;37.664;2022-10-17T15:53:35;18.60;;;9.82;;
35693;SDS011;21812;55.536;37.664;2022-10-17T15:56:01;14.15;;;8.85;;
35693;SDS011;21812;55.536;37.664;2022-10-17T15:58:32;15.52;;;8.05;;
35693;SDS011;21812;55.536;37.664;2022-10-17T16:01:00;15.75;;;9.73;;
35693;SDS011;21812;55.536;37.664;2022-10-17T16:03:26;13.65;;;8.40;;
35693;SDS011;21812;55.536;37.664;2022-10-17T16:05:54;15.40;;;9.48;;
35693;SDS011;21812;55.536;37.664;2022-10-17T16:08:20;16.35;;;8.90;;
35693;SDS011;21812;55.536;37.664;2022-10-17T16:10:46;16.73;;;9.40;;
35693;SDS011;21812;55.536;37.664;2022-10-17T16:13:16;15.27;;;9.73;;
35693;SDS011;21812;55.536;37.664;2022-10-17T16:15:43;17.33;;;9.55;;
35693;SDS011;21812;55.536;37.664;2022-10-17T16:18:09;17.10;;;9.45;;
35693;SDS011;21812;55.536;37.664;2022-10-17T16:20:35;21.25;;;10.27;;
35693;SDS011;21812;55.536;37.664;2022-10-17T16:23:02;20.85;;;9.85;;
35693;SDS011;21812;55.536;37.664;2022-10-17T16:25:29;14.48;;;8.90;;
35693;SDS011;21812;55.536;37.664;2022-10-17T16:27:56;13.95;;;8.82;;
35693;SDS011;21812;55.536;37.664;2022-10-17T16:30:24;16.67;;;8.73;;
35693;SDS011;21812;55.536;37.664;2022-10-17T16:32:51;17.98;;;9.02;;
35693;SDS011;21812;55.536;37.664;2022-10-17T16:35:19;15.35;;;8.95;;
35693;SDS011;21812;55.536;37.664;2022-10-17T16:37:49;13.88;;;9.40;;
35693;SDS011;21812;55.536;37.664;2022-10-17T16:40:15;18.13;;;10.65;;
35693;SDS011;21812;55.536;37.664;2022-10-17T16:42:41;18.80;;;10.07;;
35693;SDS011;21812;55.536;37.664;2022-10-17T16:45:07;18.42;;;10.27;;
35693;SDS011;21812;55.536;37.664;2022-10-17T16:47:39;11.55;;;8.55;;
35693;SDS011;21812;55.536;37.664;2022-10-17T16:50:05;18.00;;;9.13;;
35693;SDS011;21812;55.536;37.664;2022-10-17T16:52:30;12.70;;;8.38;;
35693;SDS011;21812;55.536;37.664;2022-10-17T16:54:56;13.23;;;7.80;;